sensor_id;sensor_type;location;lat;lon;timestamp;temperature;humidity
54796;DHT22;40693;43.884;20.340;2022-07-10T00:01:18;563.90;1843.20
54796;DHT22;40693;43.884;20.340;2022-07-10T00:03:44;563.80;1843.20
54796;DHT22;40693;43.884;20.340;2022-07-10T00:06:10;563.70;1843.20
54796;DHT22;40693;43.884;20.340;2022-07-10T00:08:36;563.90;1843.20
54796;DHT22;40693;43.884;20.340;2022-07-10T00:11:02;563.90;1843.20
54796;DHT22;40693;43.884;20.340;2022-07-10T00:13:28;563.80;1868.80
54796;DHT22;40693;43.884;20.340;2022-07-10T00:15:54;563.80;1868.80
54796;DHT22;40693;43.884;20.340;2022-07-10T00:18:19;563.80;1868.80
54796;DHT22;40693;43.884;20.340;2022-07-10T00:20:45;563.80;1868.80
54796;DHT22;40693;43.884;20.340;2022-07-10T00:23:11;563.70;1894.40
54796;DHT22;40693;43.884;20.340;2022-07-10T00:25:37;563.60;1894.40
54796;DHT22;40693;43.884;20.340;2022-07-10T00:28:03;563.50;1920.00
54796;DHT22;40693;43.884;20.340;2022-07-10T00:30:29;563.50;1920.00
54796;DHT22;40693;43.884;20.340;2022-07-10T00:32:55;563.40;1920.00
54796;DHT22;40693;43.884;20.340;2022-07-10T00:35:21;563.40;1920.00
54796;DHT22;40693;43.884;20.340;2022-07-10T00:37:47;563.40;1945.60
54796;DHT22;40693;43.884;20.340;2022-07-10T00:40:12;563.30;1945.60
54796;DHT22;40693;43.884;20.340;2022-07-10T00:42:38;563.30;1920.00
54796;DHT22;40693;43.884;20.340;2022-07-10T00:45:04;563.30;1920.00
54796;DHT22;40693;43.884;20.340;2022-07-10T00:47:30;563.20;1920.00
54796;DHT22;40693;43.884;20.340;2022-07-10T00:49:56;538.50;1920.00
54796;DHT22;40693;43.884;20.340;2022-07-10T00:52:22;563.20;1920.00
54796;DHT22;40693;43.884;20.340;2022-07-10T00:54:49;563.20;1920.00
54796;DHT22;40693;43.884;20.340;2022-07-10T00:57:18;563.20;1920.00
54796;DHT22;40693;43.884;20.340;2022-07-10T00:59:45;563.20;1920.00
54796;DHT22;40693;43.884;20.340;2022-07-10T01:02:11;563.30;1920.00
54796;DHT22;40693;43.884;20.340;2022-07-10T01:04:38;563.20;1920.00
54796;DHT22;40693;43.884;20.340;2022-07-10T01:07:04;563.30;1920.00
54796;DHT22;40693;43.884;20.340;2022-07-10T01:09:31;563.30;1920.00
54796;DHT22;40693;43.884;20.340;2022-07-10T01:12:00;563.30;1945.60
54796;DHT22;40693;43.884;20.340;2022-07-10T01:14:28;563.30;1920.00
54796;DHT22;40693;43.884;20.340;2022-07-10T01:16:53;563.20;1920.00
54796;DHT22;40693;43.884;20.340;2022-07-10T01:19:20;563.20;1945.60
54796;DHT22;40693;43.884;20.340;2022-07-10T01:21:45;563.20;1945.60
54796;DHT22;40693;43.884;20.340;2022-07-10T01:24:11;563.20;1945.60
54796;DHT22;40693;43.884;20.340;2022-07-10T01:26:38;563.20;1945.60
54796;DHT22;40693;43.884;20.340;2022-07-10T01:29:09;563.20;1971.20
54796;DHT22;40693;43.884;20.340;2022-07-10T01:31:35;563.20;1971.20
54796;DHT22;40693;43.884;20.340;2022-07-10T01:34:04;563.20;1971.20
54796;DHT22;40693;43.884;20.340;2022-07-10T01:36:30;563.20;1971.20
54796;DHT22;40693;43.884;20.340;2022-07-10T01:38:57;563.20;1971.20
54796;DHT22;40693;43.884;20.340;2022-07-10T01:41:23;563.20;1971.20
54796;DHT22;40693;43.884;20.340;2022-07-10T01:43:49;538.50;1945.60
54796;DHT22;40693;43.884;20.340;2022-07-10T01:46:15;538.50;1945.60
54796;DHT22;40693;43.884;20.340;2022-07-10T01:48:42;538.50;1945.60
54796;DHT22;40693;43.884;20.340;2022-07-10T01:51:09;538.50;1945.60
54796;DHT22;40693;43.884;20.340;2022-07-10T01:53:36;538.40;1945.60
54796;DHT22;40693;43.884;20.340;2022-07-10T01:56:08;538.30;1971.20
54796;DHT22;40693;43.884;20.340;2022-07-10T01:58:34;538.30;1945.60
54796;DHT22;40693;43.884;20.340;2022-07-10T02:01:01;538.20;1945.60
54796;DHT22;40693;43.884;20.340;2022-07-10T02:03:26;538.20;1945.60
54796;DHT22;40693;43.884;20.340;2022-07-10T02:06:11;538.20;1971.20
54796;DHT22;40693;43.884;20.340;2022-07-10T02:08:37;538.10;1971.20
54796;DHT22;40693;43.884;20.340;2022-07-10T02:11:03;538.10;1945.60
54796;DHT22;40693;43.884;20.340;2022-07-10T02:13:28;538.10;1945.60
54796;DHT22;40693;43.884;20.340;2022-07-10T02:15:55;538.00;1971.20
54796;DHT22;40693;43.884;20.340;2022-07-10T02:18:21;538.00;1945.60
54796;DHT22;40693;43.884;20.340;2022-07-10T02:20:48;537.80;1945.60
54796;DHT22;40693;43.884;20.340;2022-07-10T02:23:14;537.90;1996.80
54796;DHT22;40693;43.884;20.340;2022-07-10T02:25:40;537.70;2022.40
54796;DHT22;40693;43.884;20.340;2022-07-10T02:28:07;537.70;1996.80
54796;DHT22;40693;43.884;20.340;2022-07-10T02:30:33;537.70;2022.40
54796;DHT22;40693;43.884;20.340;2022-07-10T02:32:58;537.70;2022.40
54796;DHT22;40693;43.884;20.340;2022-07-10T02:35:24;537.60;2048.00
54796;DHT22;40693;43.884;20.340;2022-07-10T02:37:50;512.90;2022.40
54796;DHT22;40693;43.884;20.340;2022-07-10T02:40:16;512.90;2022.40
54796;DHT22;40693;43.884;20.340;2022-07-10T02:42:41;512.80;2048.00
54796;DHT22;40693;43.884;20.340;2022-07-10T02:45:08;512.80;2048.00
54796;DHT22;40693;43.884;20.340;2022-07-10T02:47:33;512.70;2048.00
54796;DHT22;40693;43.884;20.340;2022-07-10T02:49:59;512.80;1996.80
54796;DHT22;40693;43.884;20.340;2022-07-10T02:52:25;512.70;2048.00
54796;DHT22;40693;43.884;20.340;2022-07-10T02:54:51;512.60;2022.40
54796;DHT22;40693;43.884;20.340;2022-07-10T02:57:17;512.60;2022.40
54796;DHT22;40693;43.884;20.340;2022-07-10T02:59:43;512.60;2048.00
54796;DHT22;40693;43.884;20.340;2022-07-10T03:02:09;512.60;2073.60
54796;DHT22;40693;43.884;20.340;2022-07-10T03:04:35;512.50;2022.40
54796;DHT22;40693;43.884;20.340;2022-07-10T03:07:01;512.50;2048.00
54796;DHT22;40693;43.884;20.340;2022-07-10T03:09:27;512.40;2048.00
54796;DHT22;40693;43.884;20.340;2022-07-10T03:11:52;512.40;2048.00
54796;DHT22;40693;43.884;20.340;2022-07-10T03:14:18;512.40;2048.00
54796;DHT22;40693;43.884;20.340;2022-07-10T03:16:44;512.40;2048.00
54796;DHT22;40693;43.884;20.340;2022-07-10T03:19:10;512.40;2048.00
54796;DHT22;40693;43.884;20.340;2022-07-10T03:21:36;512.20;2073.60
54796;DHT22;40693;43.884;20.340;2022-07-10T03:24:01;512.20;2073.60
54796;DHT22;40693;43.884;20.340;2022-07-10T03:26:27;512.20;2073.60
54796;DHT22;40693;43.884;20.340;2022-07-10T03:28:55;512.20;2073.60
54796;DHT22;40693;43.884;20.340;2022-07-10T03:31:21;512.20;2099.20
54796;DHT22;40693;43.884;20.340;2022-07-10T03:33:47;512.20;2099.20
54796;DHT22;40693;43.884;20.340;2022-07-10T03:36:13;512.20;2099.20
54796;DHT22;40693;43.884;20.340;2022-07-10T03:38:41;512.20;2099.20
54796;DHT22;40693;43.884;20.340;2022-07-10T03:41:07;512.10;2099.20
54796;DHT22;40693;43.884;20.340;2022-07-10T03:43:33;512.10;2099.20
54796;DHT22;40693;43.884;20.340;2022-07-10T03:45:58;512.20;2099.20
54796;DHT22;40693;43.884;20.340;2022-07-10T03:48:24;512.10;2124.80
54796;DHT22;40693;43.884;20.340;2022-07-10T03:50:53;487.30;2124.80
54796;DHT22;40693;43.884;20.340;2022-07-10T03:53:19;487.30;2150.40
54796;DHT22;40693;43.884;20.340;2022-07-10T03:55:45;487.30;2150.40
54796;DHT22;40693;43.884;20.340;2022-07-10T03:58:11;487.20;2176.00
54796;DHT22;40693;43.884;20.340;2022-07-10T04:00:36;487.20;2176.00
54796;DHT22;40693;43.884;20.340;2022-07-10T04:03:05;487.20;2176.00
54796;DHT22;40693;43.884;20.340;2022-07-10T04:05:31;487.10;2176.00
54796;DHT22;40693;43.884;20.340;2022-07-10T04:07:58;487.10;2201.60
54796;DHT22;40693;43.884;20.340;2022-07-10T04:10:25;487.10;2201.60
54796;DHT22;40693;43.884;20.340;2022-07-10T04:12:51;487.10;2201.60
54796;DHT22;40693;43.884;20.340;2022-07-10T04:15:17;487.20;2227.20
54796;DHT22;40693;43.884;20.340;2022-07-10T04:17:43;487.20;2227.20
54796;DHT22;40693;43.884;20.340;2022-07-10T04:20:10;487.20;2227.20
54796;DHT22;40693;43.884;20.340;2022-07-10T04:22:36;487.20;2227.20
54796;DHT22;40693;43.884;20.340;2022-07-10T04:25:02;487.30;2252.80
54796;DHT22;40693;43.884;20.340;2022-07-10T04:27:28;487.30;2252.80
54796;DHT22;40693;43.884;20.340;2022-07-10T04:29:54;487.30;2252.80
54796;DHT22;40693;43.884;20.340;2022-07-10T04:32:20;487.30;2252.80
54796;DHT22;40693;43.884;20.340;2022-07-10T04:34:46;512.00;2252.80
54796;DHT22;40693;43.884;20.340;2022-07-10T04:37:11;512.00;2252.80
54796;DHT22;40693;43.884;20.340;2022-07-10T04:39:37;512.10;2252.80
54796;DHT22;40693;43.884;20.340;2022-07-10T04:42:05;512.10;2252.80
54796;DHT22;40693;43.884;20.340;2022-07-10T04:44:31;512.10;2304.00
54796;DHT22;40693;43.884;20.340;2022-07-10T04:46:56;512.10;2278.40
54796;DHT22;40693;43.884;20.340;2022-07-10T04:49:22;512.20;2278.40
54796;DHT22;40693;43.884;20.340;2022-07-10T04:51:48;512.20;2252.80
54796;DHT22;40693;43.884;20.340;2022-07-10T04:54:14;512.20;2252.80
54796;DHT22;40693;43.884;20.340;2022-07-10T04:56:39;512.20;2278.40
54796;DHT22;40693;43.884;20.340;2022-07-10T04:59:05;512.20;2252.80
54796;DHT22;40693;43.884;20.340;2022-07-10T05:01:31;512.30;2227.20
54796;DHT22;40693;43.884;20.340;2022-07-10T05:03:57;512.40;2201.60
54796;DHT22;40693;43.884;20.340;2022-07-10T05:06:23;512.40;2176.00
54796;DHT22;40693;43.884;20.340;2022-07-10T05:08:49;512.40;2176.00
54796;DHT22;40693;43.884;20.340;2022-07-10T05:11:14;512.50;2150.40
54796;DHT22;40693;43.884;20.340;2022-07-10T05:13:41;512.50;2150.40
54796;DHT22;40693;43.884;20.340;2022-07-10T05:16:10;512.60;2124.80
54796;DHT22;40693;43.884;20.340;2022-07-10T05:18:36;512.70;2124.80
54796;DHT22;40693;43.884;20.340;2022-07-10T05:21:02;512.70;2099.20
54796;DHT22;40693;43.884;20.340;2022-07-10T05:23:28;512.80;2099.20
54796;DHT22;40693;43.884;20.340;2022-07-10T05:25:53;512.80;2099.20
54796;DHT22;40693;43.884;20.340;2022-07-10T05:28:19;512.80;2124.80
54796;DHT22;40693;43.884;20.340;2022-07-10T05:30:45;512.80;2073.60
54796;DHT22;40693;43.884;20.340;2022-07-10T05:33:10;512.90;2073.60
54796;DHT22;40693;43.884;20.340;2022-07-10T05:35:36;512.90;2073.60
54796;DHT22;40693;43.884;20.340;2022-07-10T05:38:03;537.60;2073.60
54796;DHT22;40693;43.884;20.340;2022-07-10T05:40:29;537.70;2073.60
54796;DHT22;40693;43.884;20.340;2022-07-10T05:42:54;537.70;2073.60
54796;DHT22;40693;43.884;20.340;2022-07-10T05:45:20;537.80;2048.00
54796;DHT22;40693;43.884;20.340;2022-07-10T05:47:46;537.80;2048.00
54796;DHT22;40693;43.884;20.340;2022-07-10T05:50:12;537.80;2048.00
54796;DHT22;40693;43.884;20.340;2022-07-10T05:52:38;537.80;2048.00
54796;DHT22;40693;43.884;20.340;2022-07-10T05:55:04;537.80;2022.40
54796;DHT22;40693;43.884;20.340;2022-07-10T05:57:30;537.80;2048.00
54796;DHT22;40693;43.884;20.340;2022-07-10T06:00:00;537.90;2022.40
54796;DHT22;40693;43.884;20.340;2022-07-10T06:02:26;537.90;2022.40
54796;DHT22;40693;43.884;20.340;2022-07-10T06:04:52;537.90;2022.40
54796;DHT22;40693;43.884;20.340;2022-07-10T06:07:18;537.90;2022.40
54796;DHT22;40693;43.884;20.340;2022-07-10T06:09:44;537.90;2022.40
54796;DHT22;40693;43.884;20.340;2022-07-10T06:12:09;537.90;2022.40
54796;DHT22;40693;43.884;20.340;2022-07-10T06:14:35;537.90;2022.40
54796;DHT22;40693;43.884;20.340;2022-07-10T06:17:01;538.00;2048.00
54796;DHT22;40693;43.884;20.340;2022-07-10T06:19:27;538.10;2022.40
54796;DHT22;40693;43.884;20.340;2022-07-10T06:21:53;538.20;2022.40
54796;DHT22;40693;43.884;20.340;2022-07-10T06:24:37;538.30;2022.40
54796;DHT22;40693;43.884;20.340;2022-07-10T06:27:03;538.30;2022.40
54796;DHT22;40693;43.884;20.340;2022-07-10T06:29:29;538.40;1996.80
54796;DHT22;40693;43.884;20.340;2022-07-10T06:31:55;563.20;1971.20
54796;DHT22;40693;43.884;20.340;2022-07-10T06:34:21;563.30;1920.00
54796;DHT22;40693;43.884;20.340;2022-07-10T06:36:46;563.50;1945.60
54796;DHT22;40693;43.884;20.340;2022-07-10T06:39:12;563.60;1971.20
54796;DHT22;40693;43.884;20.340;2022-07-10T06:41:38;563.70;1945.60
54796;DHT22;40693;43.884;20.340;2022-07-10T06:44:04;563.80;1945.60
54796;DHT22;40693;43.884;20.340;2022-07-10T06:46:30;563.90;1920.00
54796;DHT22;40693;43.884;20.340;2022-07-10T06:48:57;564.00;1920.00
54796;DHT22;40693;43.884;20.340;2022-07-10T06:51:22;564.00;1894.40
54796;DHT22;40693;43.884;20.340;2022-07-10T06:53:48;564.10;1894.40
54796;DHT22;40693;43.884;20.340;2022-07-10T06:56:14;564.10;1894.40
54796;DHT22;40693;43.884;20.340;2022-07-10T06:58:41;564.10;1894.40
54796;DHT22;40693;43.884;20.340;2022-07-10T07:01:07;588.80;1894.40
54796;DHT22;40693;43.884;20.340;2022-07-10T07:03:33;588.90;1920.00
54796;DHT22;40693;43.884;20.340;2022-07-10T07:05:59;589.00;1894.40
54796;DHT22;40693;43.884;20.340;2022-07-10T07:08:24;588.90;1868.80
54796;DHT22;40693;43.884;20.340;2022-07-10T07:10:50;589.00;1868.80
54796;DHT22;40693;43.884;20.340;2022-07-10T07:13:16;589.00;1894.40
54796;DHT22;40693;43.884;20.340;2022-07-10T07:15:42;589.10;1894.40
54796;DHT22;40693;43.884;20.340;2022-07-10T07:18:12;589.20;1868.80
54796;DHT22;40693;43.884;20.340;2022-07-10T07:20:41;589.30;1843.20
54796;DHT22;40693;43.884;20.340;2022-07-10T07:23:26;589.40;1868.80
54796;DHT22;40693;43.884;20.340;2022-07-10T07:25:52;589.50;1894.40
54796;DHT22;40693;43.884;20.340;2022-07-10T07:28:19;589.70;1868.80
54796;DHT22;40693;43.884;20.340;2022-07-10T07:30:46;589.70;1843.20
54796;DHT22;40693;43.884;20.340;2022-07-10T07:33:12;614.50;1868.80
54796;DHT22;40693;43.884;20.340;2022-07-10T07:35:42;614.50;1868.80
54796;DHT22;40693;43.884;20.340;2022-07-10T07:38:08;614.80;1868.80
54796;DHT22;40693;43.884;20.340;2022-07-10T07:40:34;614.90;1868.80
54796;DHT22;40693;43.884;20.340;2022-07-10T07:43:06;615.00;1792.00
54796;DHT22;40693;43.884;20.340;2022-07-10T07:45:32;615.10;1792.00
54796;DHT22;40693;43.884;20.340;2022-07-10T07:47:59;615.30;1817.60
54796;DHT22;40693;43.884;20.340;2022-07-10T07:50:30;640.00;1817.60
54796;DHT22;40693;43.884;20.340;2022-07-10T07:53:01;640.10;1766.40
54796;DHT22;40693;43.884;20.340;2022-07-10T07:55:31;640.20;1766.40
54796;DHT22;40693;43.884;20.340;2022-07-10T07:57:57;640.30;1740.80
54796;DHT22;40693;43.884;20.340;2022-07-10T08:00:24;640.30;1740.80
54796;DHT22;40693;43.884;20.340;2022-07-10T08:02:51;640.30;1740.80
54796;DHT22;40693;43.884;20.340;2022-07-10T08:05:18;640.30;1715.20
54796;DHT22;40693;43.884;20.340;2022-07-10T08:07:49;640.40;1740.80
54796;DHT22;40693;43.884;20.340;2022-07-10T08:10:17;640.40;1766.40
54796;DHT22;40693;43.884;20.340;2022-07-10T08:12:44;640.40;1715.20
54796;DHT22;40693;43.884;20.340;2022-07-10T08:15:12;640.50;1715.20
54796;DHT22;40693;43.884;20.340;2022-07-10T08:17:39;640.50;1689.60
54796;DHT22;40693;43.884;20.340;2022-07-10T08:20:06;640.40;1689.60
54796;DHT22;40693;43.884;20.340;2022-07-10T08:22:32;640.40;1664.00
54796;DHT22;40693;43.884;20.340;2022-07-10T08:24:58;640.50;1689.60
54796;DHT22;40693;43.884;20.340;2022-07-10T08:27:24;640.50;1689.60
54796;DHT22;40693;43.884;20.340;2022-07-10T08:29:50;640.60;1689.60
54796;DHT22;40693;43.884;20.340;2022-07-10T08:32:16;640.70;1689.60
54796;DHT22;40693;43.884;20.340;2022-07-10T08:34:42;640.80;1689.60
54796;DHT22;40693;43.884;20.340;2022-07-10T08:37:08;640.80;1664.00
54796;DHT22;40693;43.884;20.340;2022-07-10T08:39:34;640.70;1638.40
54796;DHT22;40693;43.884;20.340;2022-07-10T08:42:00;640.70;1664.00
54796;DHT22;40693;43.884;20.340;2022-07-10T08:44:27;640.70;1664.00
54796;DHT22;40693;43.884;20.340;2022-07-10T08:46:54;640.60;1664.00
54796;DHT22;40693;43.884;20.340;2022-07-10T08:49:20;640.50;1664.00
54796;DHT22;40693;43.884;20.340;2022-07-10T08:52:10;640.50;1638.40
54796;DHT22;40693;43.884;20.340;2022-07-10T08:54:38;640.50;1664.00
54796;DHT22;40693;43.884;20.340;2022-07-10T08:57:04;640.50;1664.00
54796;DHT22;40693;43.884;20.340;2022-07-10T08:59:31;640.40;1664.00
54796;DHT22;40693;43.884;20.340;2022-07-10T09:01:58;640.40;1664.00
54796;DHT22;40693;43.884;20.340;2022-07-10T09:04:26;640.50;1664.00
54796;DHT22;40693;43.884;20.340;2022-07-10T09:06:53;640.50;1689.60
54796;DHT22;40693;43.884;20.340;2022-07-10T09:09:19;640.50;1664.00
54796;DHT22;40693;43.884;20.340;2022-07-10T09:11:46;640.50;1664.00
54796;DHT22;40693;43.884;20.340;2022-07-10T09:14:15;640.50;1664.00
54796;DHT22;40693;43.884;20.340;2022-07-10T09:16:43;640.50;1664.00
54796;DHT22;40693;43.884;20.340;2022-07-10T09:19:17;640.50;1664.00
54796;DHT22;40693;43.884;20.340;2022-07-10T09:21:50;640.50;1664.00
54796;DHT22;40693;43.884;20.340;2022-07-10T09:24:16;640.50;1689.60
54796;DHT22;40693;43.884;20.340;2022-07-10T09:29:19;640.60;1664.00
54796;DHT22;40693;43.884;20.340;2022-07-10T09:31:58;640.60;1638.40
54796;DHT22;40693;43.884;20.340;2022-07-10T09:34:43;640.60;1638.40
54796;DHT22;40693;43.884;20.340;2022-07-10T09:39:54;640.70;1638.40
54796;DHT22;40693;43.884;20.340;2022-07-10T09:42:27;640.70;1664.00
54796;DHT22;40693;43.884;20.340;2022-07-10T09:50:33;640.60;1587.20
54796;DHT22;40693;43.884;20.340;2022-07-10T09:52:59;640.50;1561.60
54796;DHT22;40693;43.884;20.340;2022-07-10T09:55:27;640.40;1587.20
54796;DHT22;40693;43.884;20.340;2022-07-10T09:58:02;640.50;1612.80
54796;DHT22;40693;43.884;20.340;2022-07-10T10:00:47;640.60;1612.80
54796;DHT22;40693;43.884;20.340;2022-07-10T10:03:14;640.60;1612.80
54796;DHT22;40693;43.884;20.340;2022-07-10T10:05:47;640.70;1664.00
54796;DHT22;40693;43.884;20.340;2022-07-10T10:08:24;640.90;1638.40
54796;DHT22;40693;43.884;20.340;2022-07-10T10:10:51;665.60;1638.40
54796;DHT22;40693;43.884;20.340;2022-07-10T10:13:22;665.60;1612.80
54796;DHT22;40693;43.884;20.340;2022-07-10T10:15:50;665.70;1612.80
54796;DHT22;40693;43.884;20.340;2022-07-10T10:18:24;665.70;1612.80
54796;DHT22;40693;43.884;20.340;2022-07-10T10:20:51;665.70;1587.20
54796;DHT22;40693;43.884;20.340;2022-07-10T10:23:23;665.70;1587.20
54796;DHT22;40693;43.884;20.340;2022-07-10T10:25:50;665.70;1561.60
54796;DHT22;40693;43.884;20.340;2022-07-10T10:28:18;666.00;1536.00
54796;DHT22;40693;43.884;20.340;2022-07-10T10:30:52;665.80;1536.00
54796;DHT22;40693;43.884;20.340;2022-07-10T10:33:42;665.80;1510.40
54796;DHT22;40693;43.884;20.340;2022-07-10T10:36:09;665.90;1536.00
54796;DHT22;40693;43.884;20.340;2022-07-10T10:38:59;666.10;1536.00
54796;DHT22;40693;43.884;20.340;2022-07-10T10:41:30;666.30;1510.40
54796;DHT22;40693;43.884;20.340;2022-07-10T10:46:34;691.20;1408.00
54796;DHT22;40693;43.884;20.340;2022-07-10T10:49:07;691.40;1433.60
54796;DHT22;40693;43.884;20.340;2022-07-10T10:54:23;691.40;1433.60
54796;DHT22;40693;43.884;20.340;2022-07-10T10:57:13;691.40;1433.60
54796;DHT22;40693;43.884;20.340;2022-07-10T10:59:49;691.40;1433.60
54796;DHT22;40693;43.884;20.340;2022-07-10T11:04:49;666.50;1459.20
54796;DHT22;40693;43.884;20.340;2022-07-10T11:07:50;666.50;1433.60
54796;DHT22;40693;43.884;20.340;2022-07-10T11:10:35;666.40;1433.60
54796;DHT22;40693;43.884;20.340;2022-07-10T11:15:44;666.40;1459.20
54796;DHT22;40693;43.884;20.340;2022-07-10T11:18:18;666.50;1484.80
54796;DHT22;40693;43.884;20.340;2022-07-10T11:20:54;691.20;1459.20
54796;DHT22;40693;43.884;20.340;2022-07-10T11:26:36;691.60;1408.00
54796;DHT22;40693;43.884;20.340;2022-07-10T11:29:04;691.70;1408.00
54796;DHT22;40693;43.884;20.340;2022-07-10T11:31:34;691.60;1433.60
54796;DHT22;40693;43.884;20.340;2022-07-10T11:34:04;691.60;1408.00
54796;DHT22;40693;43.884;20.340;2022-07-10T11:36:29;691.60;1356.80
54796;DHT22;40693;43.884;20.340;2022-07-10T11:38:58;691.60;1408.00
54796;DHT22;40693;43.884;20.340;2022-07-10T11:41:24;691.60;1382.40
54796;DHT22;40693;43.884;20.340;2022-07-10T11:43:55;691.80;1408.00
54796;DHT22;40693;43.884;20.340;2022-07-10T11:46:22;691.90;1382.40
54796;DHT22;40693;43.884;20.340;2022-07-10T11:48:49;691.80;1356.80
54796;DHT22;40693;43.884;20.340;2022-07-10T11:51:29;691.80;1331.20
54796;DHT22;40693;43.884;20.340;2022-07-10T11:53:57;691.60;1331.20
54796;DHT22;40693;43.884;20.340;2022-07-10T11:56:24;691.40;1356.80
54796;DHT22;40693;43.884;20.340;2022-07-10T11:58:58;691.20;1356.80
54796;DHT22;40693;43.884;20.340;2022-07-10T12:01:25;666.50;1382.40
54796;DHT22;40693;43.884;20.340;2022-07-10T12:06:24;691.30;1356.80
54796;DHT22;40693;43.884;20.340;2022-07-10T12:08:50;691.60;1382.40
54796;DHT22;40693;43.884;20.340;2022-07-10T12:11:19;691.80;1356.80
54796;DHT22;40693;43.884;20.340;2022-07-10T12:13:47;691.70;1331.20
54796;DHT22;40693;43.884;20.340;2022-07-10T12:16:13;691.80;1331.20
54796;DHT22;40693;43.884;20.340;2022-07-10T12:18:41;692.00;1331.20
54796;DHT22;40693;43.884;20.340;2022-07-10T12:21:09;692.00;1331.20
54796;DHT22;40693;43.884;20.340;2022-07-10T12:23:35;692.00;1331.20
54796;DHT22;40693;43.884;20.340;2022-07-10T12:26:04;692.00;1331.20
54796;DHT22;40693;43.884;20.340;2022-07-10T12:28:30;692.00;1331.20
54796;DHT22;40693;43.884;20.340;2022-07-10T12:30:56;692.00;1356.80
54796;DHT22;40693;43.884;20.340;2022-07-10T12:33:23;716.80;1382.40
54796;DHT22;40693;43.884;20.340;2022-07-10T12:35:56;716.90;1408.00
54796;DHT22;40693;43.884;20.340;2022-07-10T12:38:24;717.00;1356.80
54796;DHT22;40693;43.884;20.340;2022-07-10T12:40:51;717.30;1433.60
54796;DHT22;40693;43.884;20.340;2022-07-10T12:43:31;717.40;1305.60
54796;DHT22;40693;43.884;20.340;2022-07-10T12:46:21;717.40;1305.60
54796;DHT22;40693;43.884;20.340;2022-07-10T12:49:04;717.60;1331.20
54796;DHT22;40693;43.884;20.340;2022-07-10T12:51:49;717.70;1280.00
54796;DHT22;40693;43.884;20.340;2022-07-10T12:54:32;717.50;1280.00
54796;DHT22;40693;43.884;20.340;2022-07-10T12:56:58;717.60;1331.20
54796;DHT22;40693;43.884;20.340;2022-07-10T12:59:24;717.60;1305.60
54796;DHT22;40693;43.884;20.340;2022-07-10T13:01:50;717.50;1280.00
54796;DHT22;40693;43.884;20.340;2022-07-10T13:04:23;717.40;1254.40
54796;DHT22;40693;43.884;20.340;2022-07-10T13:06:50;717.30;1305.60
54796;DHT22;40693;43.884;20.340;2022-07-10T13:09:24;717.30;1331.20
54796;DHT22;40693;43.884;20.340;2022-07-10T13:11:53;717.40;1331.20
54796;DHT22;40693;43.884;20.340;2022-07-10T13:14:20;717.40;1331.20
54796;DHT22;40693;43.884;20.340;2022-07-10T13:16:46;717.50;1331.20
54796;DHT22;40693;43.884;20.340;2022-07-10T13:19:13;717.40;1280.00
54796;DHT22;40693;43.884;20.340;2022-07-10T13:21:41;717.30;1331.20
54796;DHT22;40693;43.884;20.340;2022-07-10T13:24:07;717.40;1305.60
54796;DHT22;40693;43.884;20.340;2022-07-10T13:26:32;717.40;1305.60
54796;DHT22;40693;43.884;20.340;2022-07-10T13:28:58;717.40;1305.60
54796;DHT22;40693;43.884;20.340;2022-07-10T13:31:24;717.40;1305.60
54796;DHT22;40693;43.884;20.340;2022-07-10T13:33:51;717.60;1280.00
54796;DHT22;40693;43.884;20.340;2022-07-10T13:36:16;717.60;1254.40
54796;DHT22;40693;43.884;20.340;2022-07-10T13:38:42;717.60;1254.40
54796;DHT22;40693;43.884;20.340;2022-07-10T13:41:08;717.60;1254.40
54796;DHT22;40693;43.884;20.340;2022-07-10T13:43:34;717.60;1280.00
54796;DHT22;40693;43.884;20.340;2022-07-10T13:46:01;717.70;1280.00
54796;DHT22;40693;43.884;20.340;2022-07-10T13:48:28;717.60;1280.00
54796;DHT22;40693;43.884;20.340;2022-07-10T13:50:57;717.40;1280.00
54796;DHT22;40693;43.884;20.340;2022-07-10T13:53:23;717.40;1280.00
54796;DHT22;40693;43.884;20.340;2022-07-10T13:55:48;717.40;1280.00
54796;DHT22;40693;43.884;20.340;2022-07-10T13:58:16;717.40;1280.00
54796;DHT22;40693;43.884;20.340;2022-07-10T14:00:42;717.40;1305.60
54796;DHT22;40693;43.884;20.340;2022-07-10T14:03:07;717.00;1305.60
54796;DHT22;40693;43.884;20.340;2022-07-10T14:05:34;717.00;1305.60
54796;DHT22;40693;43.884;20.340;2022-07-10T14:08:00;717.10;1305.60
54796;DHT22;40693;43.884;20.340;2022-07-10T14:10:26;717.20;1280.00
54796;DHT22;40693;43.884;20.340;2022-07-10T14:12:56;717.30;1280.00
54796;DHT22;40693;43.884;20.340;2022-07-10T14:15:22;717.40;1254.40
54796;DHT22;40693;43.884;20.340;2022-07-10T14:17:48;717.40;1280.00
54796;DHT22;40693;43.884;20.340;2022-07-10T14:20:14;717.50;1228.80
54796;DHT22;40693;43.884;20.340;2022-07-10T14:22:40;717.30;1203.20
54796;DHT22;40693;43.884;20.340;2022-07-10T14:25:06;717.20;1228.80
54796;DHT22;40693;43.884;20.340;2022-07-10T14:27:34;717.10;1254.40
54796;DHT22;40693;43.884;20.340;2022-07-10T14:30:00;717.20;1228.80
54796;DHT22;40693;43.884;20.340;2022-07-10T14:32:25;717.30;1254.40
54796;DHT22;40693;43.884;20.340;2022-07-10T14:34:51;717.40;1254.40
54796;DHT22;40693;43.884;20.340;2022-07-10T14:37:17;717.20;1254.40
54796;DHT22;40693;43.884;20.340;2022-07-10T14:39:43;717.10;1254.40
54796;DHT22;40693;43.884;20.340;2022-07-10T14:42:11;717.20;1280.00
54796;DHT22;40693;43.884;20.340;2022-07-10T14:44:37;717.30;1228.80
54796;DHT22;40693;43.884;20.340;2022-07-10T14:47:03;717.30;1228.80
54796;DHT22;40693;43.884;20.340;2022-07-10T14:49:29;717.40;1254.40
54796;DHT22;40693;43.884;20.340;2022-07-10T14:51:55;717.20;1254.40
54796;DHT22;40693;43.884;20.340;2022-07-10T14:54:21;717.40;1228.80
54796;DHT22;40693;43.884;20.340;2022-07-10T14:56:47;717.50;1203.20
54796;DHT22;40693;43.884;20.340;2022-07-10T14:59:13;717.50;1203.20
54796;DHT22;40693;43.884;20.340;2022-07-10T15:01:38;717.40;1203.20
54796;DHT22;40693;43.884;20.340;2022-07-10T15:04:07;717.30;1203.20
54796;DHT22;40693;43.884;20.340;2022-07-10T15:06:33;717.20;1203.20